sensor_id;sensor_type;location;lat;lon;timestamp;temperature;humidity
26224;DHT22;14820;48.682;8.890;2023-06-24T00:00:58;14.80;99.90
26224;DHT22;14820;48.682;8.890;2023-06-24T00:03:24;14.80;99.90
26224;DHT22;14820;48.682;8.890;2023-06-24T00:05:50;14.70;99.90
26224;DHT22;14820;48.682;8.890;2023-06-24T00:08:16;14.70;99.90
26224;DHT22;14820;48.682;8.890;2023-06-24T00:10:46;14.60;99.90
26224;DHT22;14820;48.682;8.890;2023-06-24T00:13:13;14.50;99.90
26224;DHT22;14820;48.682;8.890;2023-06-24T00:15:39;14.50;99.90
26224;DHT22;14820;48.682;8.890;2023-06-24T00:18:10;14.40;99.90
26224;DHT22;14820;48.682;8.890;2023-06-24T00:20:36;14.40;99.90
26224;DHT22;14820;48.682;8.890;2023-06-24T00:23:02;14.40;99.90
26224;DHT22;14820;48.682;8.890;2023-06-24T00:25:29;14.40;99.90
26224;DHT22;14820;48.682;8.890;2023-06-24T00:27:54;14.20;99.90
26224;DHT22;14820;48.682;8.890;2023-06-24T00:30:20;14.20;99.90
26224;DHT22;14820;48.682;8.890;2023-06-24T00:32:46;14.20;99.90
26224;DHT22;14820;48.682;8.890;2023-06-24T00:35:11;14.20;99.90
26224;DHT22;14820;48.682;8.890;2023-06-24T00:37:38;14.10;99.90
26224;DHT22;14820;48.682;8.890;2023-06-24T00:40:05;14.00;99.90
26224;DHT22;14820;48.682;8.890;2023-06-24T00:42:31;14.00;99.90
26224;DHT22;14820;48.682;8.890;2023-06-24T00:44:57;14.00;99.90
26224;DHT22;14820;48.682;8.890;2023-06-24T00:47:23;14.00;99.90
26224;DHT22;14820;48.682;8.890;2023-06-24T00:49:49;13.90;99.90
26224;DHT22;14820;48.682;8.890;2023-06-24T00:52:16;13.90;99.90
26224;DHT22;14820;48.682;8.890;2023-06-24T00:54:45;13.90;99.90
26224;DHT22;14820;48.682;8.890;2023-06-24T00:57:10;13.90;99.90
26224;DHT22;14820;48.682;8.890;2023-06-24T00:59:37;13.90;99.90
26224;DHT22;14820;48.682;8.890;2023-06-24T01:02:04;13.90;99.90
26224;DHT22;14820;48.682;8.890;2023-06-24T01:04:30;13.90;99.90
26224;DHT22;14820;48.682;8.890;2023-06-24T01:06:59;13.80;99.90
26224;DHT22;14820;48.682;8.890;2023-06-24T01:09:25;13.80;99.90
26224;DHT22;14820;48.682;8.890;2023-06-24T01:11:51;13.70;99.90
26224;DHT22;14820;48.682;8.890;2023-06-24T01:14:17;13.70;99.90
26224;DHT22;14820;48.682;8.890;2023-06-24T01:33:57;13.60;99.90
26224;DHT22;14820;48.682;8.890;2023-06-24T01:36:20;13.50;99.90
26224;DHT22;14820;48.682;8.890;2023-06-24T01:39:08;13.50;99.90
26224;DHT22;14820;48.682;8.890;2023-06-24T01:41:45;13.50;99.90
26224;DHT22;14820;48.682;8.890;2023-06-24T01:44:14;13.50;99.90
26224;DHT22;14820;48.682;8.890;2023-06-24T01:46:42;13.50;99.90
26224;DHT22;14820;48.682;8.890;2023-06-24T01:49:13;13.50;99.90
26224;DHT22;14820;48.682;8.890;2023-06-24T01:51:41;13.50;99.90
26224;DHT22;14820;48.682;8.890;2023-06-24T01:54:11;13.50;99.90
26224;DHT22;14820;48.682;8.890;2023-06-24T01:56:39;13.40;99.90
26224;DHT22;14820;48.682;8.890;2023-06-24T01:59:07;13.30;99.90
26224;DHT22;14820;48.682;8.890;2023-06-24T02:01:35;13.30;99.90
26224;DHT22;14820;48.682;8.890;2023-06-24T02:04:03;13.20;99.90
26224;DHT22;14820;48.682;8.890;2023-06-24T02:06:30;13.20;99.90
26224;DHT22;14820;48.682;8.890;2023-06-24T02:08:57;13.10;99.90
26224;DHT22;14820;48.682;8.890;2023-06-24T02:11:24;13.10;99.90
26224;DHT22;14820;48.682;8.890;2023-06-24T02:13:52;13.10;99.90
26224;DHT22;14820;48.682;8.890;2023-06-24T02:16:20;13.10;99.90
26224;DHT22;14820;48.682;8.890;2023-06-24T02:18:47;13.10;99.90
26224;DHT22;14820;48.682;8.890;2023-06-24T02:21:16;13.10;99.90
26224;DHT22;14820;48.682;8.890;2023-06-24T02:23:43;13.00;99.90
26224;DHT22;14820;48.682;8.890;2023-06-24T02:26:10;12.90;99.90
26224;DHT22;14820;48.682;8.890;2023-06-24T02:28:37;12.90;99.90
26224;DHT22;14820;48.682;8.890;2023-06-24T02:31:04;12.90;99.90
26224;DHT22;14820;48.682;8.890;2023-06-24T02:33:31;12.90;99.90
26224;DHT22;14820;48.682;8.890;2023-06-24T02:35:57;12.90;99.90
26224;DHT22;14820;48.682;8.890;2023-06-24T02:38:22;12.90;99.90
26224;DHT22;14820;48.682;8.890;2023-06-24T02:40:49;12.90;99.90
26224;DHT22;14820;48.682;8.890;2023-06-24T02:43:17;12.90;99.90
26224;DHT22;14820;48.682;8.890;2023-06-24T02:45:47;12.90;99.90
26224;DHT22;14820;48.682;8.890;2023-06-24T02:48:13;13.00;99.90
26224;DHT22;14820;48.682;8.890;2023-06-24T02:50:41;13.00;99.90
26224;DHT22;14820;48.682;8.890;2023-06-24T02:53:10;12.90;99.90
26224;DHT22;14820;48.682;8.890;2023-06-24T02:55:37;12.90;99.90
26224;DHT22;14820;48.682;8.890;2023-06-24T02:58:04;12.90;99.90
26224;DHT22;14820;48.682;8.890;2023-06-24T03:00:33;12.90;99.90
26224;DHT22;14820;48.682;8.890;2023-06-24T03:03:00;12.90;99.90
26224;DHT22;14820;48.682;8.890;2023-06-24T03:05:27;12.90;99.90
26224;DHT22;14820;48.682;8.890;2023-06-24T03:07:53;12.80;99.90
26224;DHT22;14820;48.682;8.890;2023-06-24T03:10:18;12.80;99.90
26224;DHT22;14820;48.682;8.890;2023-06-24T03:12:44;12.70;99.90
26224;DHT22;14820;48.682;8.890;2023-06-24T03:15:10;12.60;99.90
26224;DHT22;14820;48.682;8.890;2023-06-24T03:17:36;12.60;99.90
26224;DHT22;14820;48.682;8.890;2023-06-24T03:20:02;12.50;99.90
26224;DHT22;14820;48.682;8.890;2023-06-24T03:22:29;12.60;99.90
26224;DHT22;14820;48.682;8.890;2023-06-24T03:24:55;12.60;99.90
26224;DHT22;14820;48.682;8.890;2023-06-24T03:27:21;12.50;99.90
26224;DHT22;14820;48.682;8.890;2023-06-24T03:29:47;12.50;99.90
26224;DHT22;14820;48.682;8.890;2023-06-24T03:32:12;12.50;99.90
26224;DHT22;14820;48.682;8.890;2023-06-24T03:34:38;12.50;99.90
26224;DHT22;14820;48.682;8.890;2023-06-24T03:37:04;12.50;99.90
26224;DHT22;14820;48.682;8.890;2023-06-24T03:39:29;12.50;99.90
26224;DHT22;14820;48.682;8.890;2023-06-24T03:41:55;12.50;99.90
26224;DHT22;14820;48.682;8.890;2023-06-24T03:44:21;12.40;99.90
26224;DHT22;14820;48.682;8.890;2023-06-24T03:46:46;12.40;99.90
26224;DHT22;14820;48.682;8.890;2023-06-24T03:49:12;12.50;99.90
26224;DHT22;14820;48.682;8.890;2023-06-24T03:51:38;12.50;99.90
26224;DHT22;14820;48.682;8.890;2023-06-24T03:54:03;12.50;99.90
26224;DHT22;14820;48.682;8.890;2023-06-24T03:56:29;12.60;99.90
26224;DHT22;14820;48.682;8.890;2023-06-24T03:58:55;12.60;99.90
26224;DHT22;14820;48.682;8.890;2023-06-24T04:01:20;12.60;99.90
26224;DHT22;14820;48.682;8.890;2023-06-24T04:03:46;12.60;99.90
26224;DHT22;14820;48.682;8.890;2023-06-24T04:06:12;12.60;99.90
26224;DHT22;14820;48.682;8.890;2023-06-24T04:08:38;12.60;99.90
26224;DHT22;14820;48.682;8.890;2023-06-24T04:11:09;12.70;99.90
26224;DHT22;14820;48.682;8.890;2023-06-24T04:13:35;12.70;99.90
26224;DHT22;14820;48.682;8.890;2023-06-24T04:16:01;12.70;99.90
26224;DHT22;14820;48.682;8.890;2023-06-24T04:18:27;12.70;99.90
26224;DHT22;14820;48.682;8.890;2023-06-24T04:20:53;12.70;99.90
26224;DHT22;14820;48.682;8.890;2023-06-24T04:23:19;12.70;99.90
26224;DHT22;14820;48.682;8.890;2023-06-24T04:25:44;12.70;99.90
26224;DHT22;14820;48.682;8.890;2023-06-24T04:28:10;12.60;99.90
26224;DHT22;14820;48.682;8.890;2023-06-24T04:30:36;12.70;99.90
26224;DHT22;14820;48.682;8.890;2023-06-24T04:33:04;12.70;99.90
26224;DHT22;14820;48.682;8.890;2023-06-24T04:35:30;12.70;99.90
26224;DHT22;14820;48.682;8.890;2023-06-24T04:37:56;12.80;99.90
26224;DHT22;14820;48.682;8.890;2023-06-24T04:40:21;12.80;99.90
26224;DHT22;14820;48.682;8.890;2023-06-24T04:42:47;12.80;99.90
26224;DHT22;14820;48.682;8.890;2023-06-24T04:45:13;12.80;99.90
26224;DHT22;14820;48.682;8.890;2023-06-24T04:47:39;12.80;99.90
26224;DHT22;14820;48.682;8.890;2023-06-24T04:50:05;12.80;99.90
26224;DHT22;14820;48.682;8.890;2023-06-24T04:52:30;12.80;99.90
26224;DHT22;14820;48.682;8.890;2023-06-24T04:54:56;12.90;99.90
26224;DHT22;14820;48.682;8.890;2023-06-24T04:57:32;12.90;99.90
26224;DHT22;14820;48.682;8.890;2023-06-24T04:59:58;13.00;99.90
26224;DHT22;14820;48.682;8.890;2023-06-24T05:02:24;13.10;99.90
26224;DHT22;14820;48.682;8.890;2023-06-24T05:04:51;13.20;99.90
26224;DHT22;14820;48.682;8.890;2023-06-24T05:07:17;13.20;99.90
26224;DHT22;14820;48.682;8.890;2023-06-24T05:09:44;13.30;99.90
26224;DHT22;14820;48.682;8.890;2023-06-24T05:12:10;13.40;99.90
26224;DHT22;14820;48.682;8.890;2023-06-24T05:14:36;13.40;99.90
26224;DHT22;14820;48.682;8.890;2023-06-24T05:17:03;13.50;99.90
26224;DHT22;14820;48.682;8.890;2023-06-24T05:19:29;13.60;99.90
26224;DHT22;14820;48.682;8.890;2023-06-24T05:21:55;13.60;99.90
26224;DHT22;14820;48.682;8.890;2023-06-24T05:24:21;13.50;99.90
26224;DHT22;14820;48.682;8.890;2023-06-24T05:26:50;13.60;99.90
26224;DHT22;14820;48.682;8.890;2023-06-24T05:29:17;13.70;99.90
26224;DHT22;14820;48.682;8.890;2023-06-24T05:31:43;13.70;99.90
26224;DHT22;14820;48.682;8.890;2023-06-24T05:34:09;13.80;99.90
26224;DHT22;14820;48.682;8.890;2023-06-24T05:36:34;13.80;99.90
26224;DHT22;14820;48.682;8.890;2023-06-24T05:39:00;13.90;99.90
26224;DHT22;14820;48.682;8.890;2023-06-24T05:41:26;14.00;99.90
26224;DHT22;14820;48.682;8.890;2023-06-24T05:44:12;14.10;99.90
26224;DHT22;14820;48.682;8.890;2023-06-24T05:46:37;14.20;99.90
26224;DHT22;14820;48.682;8.890;2023-06-24T05:49:03;14.30;99.90
26224;DHT22;14820;48.682;8.890;2023-06-24T05:51:29;14.40;99.90
26224;DHT22;14820;48.682;8.890;2023-06-24T05:53:55;14.40;99.90
26224;DHT22;14820;48.682;8.890;2023-06-24T05:56:21;14.50;99.90
26224;DHT22;14820;48.682;8.890;2023-06-24T05:58:48;14.60;99.90
26224;DHT22;14820;48.682;8.890;2023-06-24T06:01:14;14.70;99.90
26224;DHT22;14820;48.682;8.890;2023-06-24T06:03:39;14.80;99.90
26224;DHT22;14820;48.682;8.890;2023-06-24T06:06:05;14.90;99.90
26224;DHT22;14820;48.682;8.890;2023-06-24T06:08:30;15.10;99.90
26224;DHT22;14820;48.682;8.890;2023-06-24T06:10:56;15.20;99.90
26224;DHT22;14820;48.682;8.890;2023-06-24T06:13:22;15.30;99.90
26224;DHT22;14820;48.682;8.890;2023-06-24T06:15:47;15.50;99.90
26224;DHT22;14820;48.682;8.890;2023-06-24T06:18:13;15.50;99.90
26224;DHT22;14820;48.682;8.890;2023-06-24T06:20:39;15.70;99.90
26224;DHT22;14820;48.682;8.890;2023-06-24T06:23:04;15.90;99.90
26224;DHT22;14820;48.682;8.890;2023-06-24T06:25:30;16.00;99.90
26224;DHT22;14820;48.682;8.890;2023-06-24T06:27:55;16.20;99.90
26224;DHT22;14820;48.682;8.890;2023-06-24T06:30:21;16.30;99.90
26224;DHT22;14820;48.682;8.890;2023-06-24T06:32:47;16.40;99.90
26224;DHT22;14820;48.682;8.890;2023-06-24T06:35:12;16.60;99.90
26224;DHT22;14820;48.682;8.890;2023-06-24T06:37:38;16.70;99.90
26224;DHT22;14820;48.682;8.890;2023-06-24T06:40:04;16.80;99.90
26224;DHT22;14820;48.682;8.890;2023-06-24T06:42:30;16.90;99.90
26224;DHT22;14820;48.682;8.890;2023-06-24T06:44:56;17.00;99.90
26224;DHT22;14820;48.682;8.890;2023-06-24T06:47:22;17.20;99.90
26224;DHT22;14820;48.682;8.890;2023-06-24T06:49:47;17.20;99.90
26224;DHT22;14820;48.682;8.890;2023-06-24T06:52:13;17.30;99.90
26224;DHT22;14820;48.682;8.890;2023-06-24T06:54:39;17.50;99.90
26224;DHT22;14820;48.682;8.890;2023-06-24T06:57:05;17.60;99.90
26224;DHT22;14820;48.682;8.890;2023-06-24T06:59:31;17.70;99.90
26224;DHT22;14820;48.682;8.890;2023-06-24T07:01:57;17.80;99.90
26224;DHT22;14820;48.682;8.890;2023-06-24T07:04:23;17.90;99.90
26224;DHT22;14820;48.682;8.890;2023-06-24T07:06:49;18.00;99.90
26224;DHT22;14820;48.682;8.890;2023-06-24T07:09:15;18.10;99.90
26224;DHT22;14820;48.682;8.890;2023-06-24T07:11:41;18.20;99.90
26224;DHT22;14820;48.682;8.890;2023-06-24T07:14:07;18.40;99.90
26224;DHT22;14820;48.682;8.890;2023-06-24T07:16:33;18.50;99.90
26224;DHT22;14820;48.682;8.890;2023-06-24T07:18:59;18.60;99.90
26224;DHT22;14820;48.682;8.890;2023-06-24T07:21:24;18.70;99.90
26224;DHT22;14820;48.682;8.890;2023-06-24T07:23:50;18.70;99.90
26224;DHT22;14820;48.682;8.890;2023-06-24T07:26:16;18.80;99.90
26224;DHT22;14820;48.682;8.890;2023-06-24T07:28:41;18.90;99.90
26224;DHT22;14820;48.682;8.890;2023-06-24T07:31:07;19.00;99.90
26224;DHT22;14820;48.682;8.890;2023-06-24T07:33:33;19.10;99.90
26224;DHT22;14820;48.682;8.890;2023-06-24T07:35:59;19.20;99.90
26224;DHT22;14820;48.682;8.890;2023-06-24T07:38:24;19.30;99.90
26224;DHT22;14820;48.682;8.890;2023-06-24T07:40:50;19.40;99.90
26224;DHT22;14820;48.682;8.890;2023-06-24T07:43:16;19.40;99.90
26224;DHT22;14820;48.682;8.890;2023-06-24T07:45:42;19.50;99.90
26224;DHT22;14820;48.682;8.890;2023-06-24T07:48:08;19.50;99.90
26224;DHT22;14820;48.682;8.890;2023-06-24T07:50:34;19.50;99.90
26224;DHT22;14820;48.682;8.890;2023-06-24T07:53:01;19.60;99.90
26224;DHT22;14820;48.682;8.890;2023-06-24T07:55:27;19.60;99.90
26224;DHT22;14820;48.682;8.890;2023-06-24T07:57:53;19.70;99.90
26224;DHT22;14820;48.682;8.890;2023-06-24T08:00:19;19.80;99.90
26224;DHT22;14820;48.682;8.890;2023-06-24T08:02:44;19.90;99.90
26224;DHT22;14820;48.682;8.890;2023-06-24T08:05:10;19.90;99.90
26224;DHT22;14820;48.682;8.890;2023-06-24T08:07:37;20.00;99.90
26224;DHT22;14820;48.682;8.890;2023-06-24T08:10:03;20.10;99.90
26224;DHT22;14820;48.682;8.890;2023-06-24T08:12:29;20.10;99.90
26224;DHT22;14820;48.682;8.890;2023-06-24T08:14:55;20.20;99.90
26224;DHT22;14820;48.682;8.890;2023-06-24T08:17:20;20.30;99.90
26224;DHT22;14820;48.682;8.890;2023-06-24T08:19:46;20.40;99.90
26224;DHT22;14820;48.682;8.890;2023-06-24T08:22:12;20.50;99.90
26224;DHT22;14820;48.682;8.890;2023-06-24T08:24:37;20.50;99.90
26224;DHT22;14820;48.682;8.890;2023-06-24T08:27:03;20.50;99.90
26224;DHT22;14820;48.682;8.890;2023-06-24T08:29:29;20.70;99.90
26224;DHT22;14820;48.682;8.890;2023-06-24T08:31:54;20.80;99.90
26224;DHT22;14820;48.682;8.890;2023-06-24T08:34:20;20.80;99.90
26224;DHT22;14820;48.682;8.890;2023-06-24T08:36:45;20.90;99.90
26224;DHT22;14820;48.682;8.890;2023-06-24T08:39:11;20.90;99.90
26224;DHT22;14820;48.682;8.890;2023-06-24T08:41:37;20.90;99.90
26224;DHT22;14820;48.682;8.890;2023-06-24T08:44:03;20.90;99.90
26224;DHT22;14820;48.682;8.890;2023-06-24T08:46:29;21.10;99.90
26224;DHT22;14820;48.682;8.890;2023-06-24T08:49:04;21.20;99.90
26224;DHT22;14820;48.682;8.890;2023-06-24T08:51:38;21.30;99.90
26224;DHT22;14820;48.682;8.890;2023-06-24T08:54:07;21.50;99.90
26224;DHT22;14820;48.682;8.890;2023-06-24T08:56:34;21.70;99.90
26224;DHT22;14820;48.682;8.890;2023-06-24T08:59:00;21.70;99.90
26224;DHT22;14820;48.682;8.890;2023-06-24T09:01:27;21.80;99.90
26224;DHT22;14820;48.682;8.890;2023-06-24T09:03:53;21.90;99.90
26224;DHT22;14820;48.682;8.890;2023-06-24T09:06:18;21.90;99.90
26224;DHT22;14820;48.682;8.890;2023-06-24T09:08:54;22.00;99.90
26224;DHT22;14820;48.682;8.890;2023-06-24T09:11:26;22.10;99.90
26224;DHT22;14820;48.682;8.890;2023-06-24T09:13:59;22.20;99.90
26224;DHT22;14820;48.682;8.890;2023-06-24T09:16:26;22.40;99.90
26224;DHT22;14820;48.682;8.890;2023-06-24T09:18:52;22.40;99.90
26224;DHT22;14820;48.682;8.890;2023-06-24T09:21:29;22.50;99.90
26224;DHT22;14820;48.682;8.890;2023-06-24T09:23:57;22.60;99.90
26224;DHT22;14820;48.682;8.890;2023-06-24T09:26:23;22.70;99.90
26224;DHT22;14820;48.682;8.890;2023-06-24T09:28:50;22.90;99.90
26224;DHT22;14820;48.682;8.890;2023-06-24T09:31:17;22.90;99.90
26224;DHT22;14820;48.682;8.890;2023-06-24T09:33:43;23.00;99.90
26224;DHT22;14820;48.682;8.890;2023-06-24T09:36:13;22.90;99.90
26224;DHT22;14820;48.682;8.890;2023-06-24T09:38:41;22.90;99.90
26224;DHT22;14820;48.682;8.890;2023-06-24T09:41:08;22.80;99.90
26224;DHT22;14820;48.682;8.890;2023-06-24T09:43:35;22.90;99.90
26224;DHT22;14820;48.682;8.890;2023-06-24T09:46:03;23.00;99.90
26224;DHT22;14820;48.682;8.890;2023-06-24T09:48:29;23.20;99.90
26224;DHT22;14820;48.682;8.890;2023-06-24T09:51:00;23.20;99.90
26224;DHT22;14820;48.682;8.890;2023-06-24T09:53:33;23.20;99.90
26224;DHT22;14820;48.682;8.890;2023-06-24T09:56:04;23.20;99.90
26224;DHT22;14820;48.682;8.890;2023-06-24T09:58:36;23.30;99.90
26224;DHT22;14820;48.682;8.890;2023-06-24T10:01:04;23.50;99.40
26224;DHT22;14820;48.682;8.890;2023-06-24T10:03:35;23.60;98.80
26224;DHT22;14820;48.682;8.890;2023-06-24T10:06:02;23.70;98.70
26224;DHT22;14820;48.682;8.890;2023-06-24T10:08:30;23.90;97.80
26224;DHT22;14820;48.682;8.890;2023-06-24T10:10:56;23.80;97.20
26224;DHT22;14820;48.682;8.890;2023-06-24T10:13:22;23.90;97.90
26224;DHT22;14820;48.682;8.890;2023-06-24T10:15:49;24.00;97.60
26224;DHT22;14820;48.682;8.890;2023-06-24T10:18:34;24.00;96.20
26224;DHT22;14820;48.682;8.890;2023-06-24T10:21:00;24.00;95.60
26224;DHT22;14820;48.682;8.890;2023-06-24T10:26:29;24.00;95.40
26224;DHT22;14820;48.682;8.890;2023-06-24T10:39:39;23.90;96.00
26224;DHT22;14820;48.682;8.890;2023-06-24T10:42:42;24.10;95.80
26224;DHT22;14820;48.682;8.890;2023-06-24T10:45:18;24.30;95.00
26224;DHT22;14820;48.682;8.890;2023-06-24T10:47:51;24.40;94.30
26224;DHT22;14820;48.682;8.890;2023-06-24T10:50:22;24.40;94.30
26224;DHT22;14820;48.682;8.890;2023-06-24T10:52:52;24.40;94.30
26224;DHT22;14820;48.682;8.890;2023-06-24T10:55:25;24.30;94.20
26224;DHT22;14820;48.682;8.890;2023-06-24T10:57:53;24.30;93.90
26224;DHT22;14820;48.682;8.890;2023-06-24T11:00:20;24.20;94.00
26224;DHT22;14820;48.682;8.890;2023-06-24T11:02:46;24.30;94.00
26224;DHT22;14820;48.682;8.890;2023-06-24T11:05:12;24.30;93.60
26224;DHT22;14820;48.682;8.890;2023-06-24T11:07:38;24.30;93.90
26224;DHT22;14820;48.682;8.890;2023-06-24T11:10:12;24.30;94.00
26224;DHT22;14820;48.682;8.890;2023-06-24T11:12:39;24.30;94.00
26224;DHT22;14820;48.682;8.890;2023-06-24T11:15:09;24.20;93.90
26224;DHT22;14820;48.682;8.890;2023-06-24T11:17:36;24.20;93.60
26224;DHT22;14820;48.682;8.890;2023-06-24T11:20:08;24.10;93.60
26224;DHT22;14820;48.682;8.890;2023-06-24T11:22:34;24.20;93.50
26224;DHT22;14820;48.682;8.890;2023-06-24T11:25:00;24.40;93.70
26224;DHT22;14820;48.682;8.890;2023-06-24T11:27:27;24.40;93.20
26224;DHT22;14820;48.682;8.890;2023-06-24T11:29:54;24.40;91.80
26224;DHT22;14820;48.682;8.890;2023-06-24T11:32:20;24.30;91.60
26224;DHT22;14820;48.682;8.890;2023-06-24T11:34:47;24.30;91.10
26224;DHT22;14820;48.682;8.890;2023-06-24T11:37:17;24.30;91.30
26224;DHT22;14820;48.682;8.890;2023-06-24T11:39:44;24.40;91.40
26224;DHT22;14820;48.682;8.890;2023-06-24T11:42:10;24.60;91.90
26224;DHT22;14820;48.682;8.890;2023-06-24T11:44:42;24.70;91.90
26224;DHT22;14820;48.682;8.890;2023-06-24T11:47:10;24.70;91.20
26224;DHT22;14820;48.682;8.890;2023-06-24T11:49:52;24.60;90.70
26224;DHT22;14820;48.682;8.890;2023-06-24T11:52:18;24.60;90.50
26224;DHT22;14820;48.682;8.890;2023-06-24T11:54:44;24.70;91.20
26224;DHT22;14820;48.682;8.890;2023-06-24T11:57:10;24.80;90.80
26224;DHT22;14820;48.682;8.890;2023-06-24T11:59:37;24.90;90.60
26224;DHT22;14820;48.682;8.890;2023-06-24T12:02:03;24.90;89.40
26224;DHT22;14820;48.682;8.890;2023-06-24T12:04:30;24.90;89.40
26224;DHT22;14820;48.682;8.890;2023-06-24T12:06:56;25.00;90.20
26224;DHT22;14820;48.682;8.890;2023-06-24T12:09:22;25.10;89.30
26224;DHT22;14820;48.682;8.890;2023-06-24T12:11:48;25.00;88.20
26224;DHT22;14820;48.682;8.890;2023-06-24T12:14:14;25.00;89.20
26224;DHT22;14820;48.682;8.890;2023-06-24T12:16:40;25.00;87.90
26224;DHT22;14820;48.682;8.890;2023-06-24T12:19:06;25.10;86.70
26224;DHT22;14820;48.682;8.890;2023-06-24T12:21:33;25.20;87.60
26224;DHT22;14820;48.682;8.890;2023-06-24T12:23:58;25.20;88.20
26224;DHT22;14820;48.682;8.890;2023-06-24T12:26:24;25.40;88.60
26224;DHT22;14820;48.682;8.890;2023-06-24T12:28:50;25.50;86.20
26224;DHT22;14820;48.682;8.890;2023-06-24T12:31:15;25.50;85.10
26224;DHT22;14820;48.682;8.890;2023-06-24T12:33:41;25.60;85.00
26224;DHT22;14820;48.682;8.890;2023-06-24T12:36:07;25.70;82.90
26224;DHT22;14820;48.682;8.890;2023-06-24T12:38:32;25.70;83.70
26224;DHT22;14820;48.682;8.890;2023-06-24T12:40:58;25.80;82.60
26224;DHT22;14820;48.682;8.890;2023-06-24T12:43:24;25.70;82.50
26224;DHT22;14820;48.682;8.890;2023-06-24T12:45:49;25.70;82.10
26224;DHT22;14820;48.682;8.890;2023-06-24T12:48:16;25.80;82.10
26224;DHT22;14820;48.682;8.890;2023-06-24T12:50:42;25.90;81.00
26224;DHT22;14820;48.682;8.890;2023-06-24T12:53:08;25.90;80.00
26224;DHT22;14820;48.682;8.890;2023-06-24T12:55:36;26.00;79.90
26224;DHT22;14820;48.682;8.890;2023-06-24T12:58:02;25.90;76.70
26224;DHT22;14820;48.682;8.890;2023-06-24T13:00:28;25.80;78.60
26224;DHT22;14820;48.682;8.890;2023-06-24T13:02:53;25.90;79.00
26224;DHT22;14820;48.682;8.890;2023-06-24T13:05:19;26.00;78.30
26224;DHT22;14820;48.682;8.890;2023-06-24T13:07:45;26.00;77.70
26224;DHT22;14820;48.682;8.890;2023-06-24T13:10:11;26.10;76.50
26224;DHT22;14820;48.682;8.890;2023-06-24T13:12:37;26.00;75.60
26224;DHT22;14820;48.682;8.890;2023-06-24T13:15:06;26.00;76.80
26224;DHT22;14820;48.682;8.890;2023-06-24T13:17:32;26.00;76.10
26224;DHT22;14820;48.682;8.890;2023-06-24T13:19:58;26.00;75.80
26224;DHT22;14820;48.682;8.890;2023-06-24T13:22:24;26.00;76.90
26224;DHT22;14820;48.682;8.890;2023-06-24T13:24:50;26.00;77.70
26224;DHT22;14820;48.682;8.890;2023-06-24T13:27:16;26.10;76.70
26224;DHT22;14820;48.682;8.890;2023-06-24T13:29:42;26.10;75.80
26224;DHT22;14820;48.682;8.890;2023-06-24T13:32:08;26.20;76.60
26224;DHT22;14820;48.682;8.890;2023-06-24T13:34:34;26.20;75.30
26224;DHT22;14820;48.682;8.890;2023-06-24T13:37:00;26.30;75.10
26224;DHT22;14820;48.682;8.890;2023-06-24T13:39:25;26.40;74.80
26224;DHT22;14820;48.682;8.890;2023-06-24T13:41:53;26.40;74.30
26224;DHT22;14820;48.682;8.890;2023-06-24T13:44:18;26.40;73.80
26224;DHT22;14820;48.682;8.890;2023-06-24T13:46:44;26.40;74.10
26224;DHT22;14820;48.682;8.890;2023-06-24T13:49:10;26.40;73.70
26224;DHT22;14820;48.682;8.890;2023-06-24T13:51:36;26.50;73.40
26224;DHT22;14820;48.682;8.890;2023-06-24T13:54:02;26.40;72.60
26224;DHT22;14820;48.682;8.890;2023-06-24T13:56:28;26.40;72.30
26224;DHT22;14820;48.682;8.890;2023-06-24T13:58:55;26.40;72.10
26224;DHT22;14820;48.682;8.890;2023-06-24T14:01:21;26.40;72.40
26224;DHT22;14820;48.682;8.890;2023-06-24T14:03:47;26.40;72.20
26224;DHT22;14820;48.682;8.890;2023-06-24T14:06:15;26.40;73.70
26224;DHT22;14820;48.682;8.890;2023-06-24T14:08:41;26.40;72.20
26224;DHT22;14820;48.682;8.890;2023-06-24T14:11:06;26.40;72.20
26224;DHT22;14820;48.682;8.890;2023-06-24T14:13:32;26.40;72.70
26224;DHT22;14820;48.682;8.890;2023-06-24T14:15:58;26.50;73.30
26224;DHT22;14820;48.682;8.890;2023-06-24T14:18:24;26.40;72.90
26224;DHT22;14820;48.682;8.890;2023-06-24T14:20:51;26.40;72.80
26224;DHT22;14820;48.682;8.890;2023-06-24T14:23:16;26.40;72.60
26224;DHT22;14820;48.682;8.890;2023-06-24T14:25:42;26.40;73.50
26224;DHT22;14820;48.682;8.890;2023-06-24T14:28:08;26.50;71.80
26224;DHT22;14820;48.682;8.890;2023-06-24T14:30:34;26.40;70.10
26224;DHT22;14820;48.682;8.890;2023-06-24T14:33:02;26.40;70.70
26224;DHT22;14820;48.682;8.890;2023-06-24T14:35:28;26.40;69.70
26224;DHT22;14820;48.682;8.890;2023-06-24T14:37:54;26.30;70.10
26224;DHT22;14820;48.682;8.890;2023-06-24T14:40:19;26.30;70.40
26224;DHT22;14820;48.682;8.890;2023-06-24T14:42:45;26.30;69.90
26224;DHT22;14820;48.682;8.890;2023-06-24T14:45:10;26.30;69.30
26224;DHT22;14820;48.682;8.890;2023-06-24T14:47:36;26.20;70.20
26224;DHT22;14820;48.682;8.890;2023-06-24T14:50:03;26.20;70.00
26224;DHT22;14820;48.682;8.890;2023-06-24T14:52:29;26.20;70.00
26224;DHT22;14820;48.682;8.890;2023-06-24T14:54:56;26.20;69.80
26224;DHT22;14820;48.682;8.890;2023-06-24T14:57:21;26.10;70.40
26224;DHT22;14820;48.682;8.890;2023-06-24T14:59:49;26.20;70.90
26224;DHT22;14820;48.682;8.890;2023-06-24T15:02:15;26.20;71.00
26224;DHT22;14820;48.682;8.890;2023-06-24T15:04:41;26.30;70.90
26224;DHT22;14820;48.682;8.890;2023-06-24T15:07:06;26.30;69.90
26224;DHT22;14820;48.682;8.890;2023-06-24T15:09:32;26.30;70.30
26224;DHT22;14820;48.682;8.890;2023-06-24T15:11:59;26.30;69.90
26224;DHT22;14820;48.682;8.890;2023-06-24T15:14:25;26.20;70.10
26224;DHT22;14820;48.682;8.890;2023-06-24T15:16:51;26.20;70.30
26224;DHT22;14820;48.682;8.890;2023-06-24T15:19:19;26.20;70.20
26224;DHT22;14820;48.682;8.890;2023-06-24T15:21:45;26.20;69.80
26224;DHT22;14820;48.682;8.890;2023-06-24T15:24:10;26.20;70.10
26224;DHT22;14820;48.682;8.890;2023-06-24T15:26:36;26.20;69.60
26224;DHT22;14820;48.682;8.890;2023-06-24T15:29:02;26.10;69.60
26224;DHT22;14820;48.682;8.890;2023-06-24T15:31:27;26.20;69.90
26224;DHT22;14820;48.682;8.890;2023-06-24T15:33:53;26.20;69.90
26224;DHT22;14820;48.682;8.890;2023-06-24T15:36:19;26.20;69.30
26224;DHT22;14820;48.682;8.890;2023-06-24T15:38:46;26.20;69.60
26224;DHT22;14820;48.682;8.890;2023-06-24T15:41:12;26.20;69.90
26224;DHT22;14820;48.682;8.890;2023-06-24T15:43:39;26.20;69.20
26224;DHT22;14820;48.682;8.890;2023-06-24T15:46:05;26.20;69.80
26224;DHT22;14820;48.682;8.890;2023-06-24T15:48:31;26.10;69.20
26224;DHT22;14820;48.682;8.890;2023-06-24T15:50:57;26.10;69.80
26224;DHT22;14820;48.682;8.890;2023-06-24T15:53:25;26.10;69.50
26224;DHT22;14820;48.682;8.890;2023-06-24T15:55:50;26.00;70.20
26224;DHT22;14820;48.682;8.890;2023-06-24T15:58:16;26.10;71.20